sensor_id;sensor_type;location;lat;lon;timestamp;P1;durP1;ratioP1;P2;durP2;ratioP2
25627;SDS011;40915;50.826;4.356;2022-08-01T00:01:23;4.18;;;1.70;;
25627;SDS011;40915;50.826;4.356;2022-08-01T00:03:51;3.28;;;1.95;;
25627;SDS011;40915;50.826;4.356;2022-08-01T00:06:18;3.17;;;1.83;;
25627;SDS011;40915;50.826;4.356;2022-08-01T00:08:45;2.63;;;1.50;;
25627;SDS011;40915;50.826;4.356;2022-08-01T00:11:12;3.30;;;1.80;;
25627;SDS011;40915;50.826;4.356;2022-08-01T00:13:39;4.35;;;1.73;;
25627;SDS011;40915;50.826;4.356;2022-08-01T00:16:06;3.13;;;1.63;;
25627;SDS011;40915;50.826;4.356;2022-08-01T00:18:33;3.97;;;1.70;;
25627;SDS011;40915;50.826;4.356;2022-08-01T00:21:01;4.97;;;2.10;;
25627;SDS011;40915;50.826;4.356;2022-08-01T00:23:28;5.30;;;2.10;;
25627;SDS011;40915;50.826;4.356;2022-08-01T00:25:55;6.72;;;2.63;;
25627;SDS011;40915;50.826;4.356;2022-08-01T00:28:22;7.07;;;2.30;;
25627;SDS011;40915;50.826;4.356;2022-08-01T00:30:49;4.90;;;2.70;;
25627;SDS011;40915;50.826;4.356;2022-08-01T00:33:16;6.30;;;2.70;;
25627;SDS011;40915;50.826;4.356;2022-08-01T00:35:43;8.32;;;2.92;;
25627;SDS011;40915;50.826;4.356;2022-08-01T00:38:09;7.95;;;3.03;;
25627;SDS011;40915;50.826;4.356;2022-08-01T00:40:36;4.78;;;2.55;;
25627;SDS011;40915;50.826;4.356;2022-08-01T00:43:03;5.63;;;2.95;;
25627;SDS011;40915;50.826;4.356;2022-08-01T00:45:30;5.30;;;2.60;;
25627;SDS011;40915;50.826;4.356;2022-08-01T00:47:57;5.47;;;2.70;;
25627;SDS011;40915;50.826;4.356;2022-08-01T00:50:24;6.00;;;2.20;;
25627;SDS011;40915;50.826;4.356;2022-08-01T00:52:53;4.75;;;2.78;;
25627;SDS011;40915;50.826;4.356;2022-08-01T00:55:19;7.85;;;2.70;;
25627;SDS011;40915;50.826;4.356;2022-08-01T00:57:46;4.30;;;2.50;;
25627;SDS011;40915;50.826;4.356;2022-08-01T01:00:12;5.55;;;2.35;;
25627;SDS011;40915;50.826;4.356;2022-08-01T01:02:38;5.57;;;2.70;;
25627;SDS011;40915;50.826;4.356;2022-08-01T01:05:04;3.38;;;2.33;;
25627;SDS011;40915;50.826;4.356;2022-08-01T01:07:40;3.35;;;2.20;;
25627;SDS011;40915;50.826;4.356;2022-08-01T01:12:54;7.28;;;2.55;;
25627;SDS011;40915;50.826;4.356;2022-08-01T01:17:57;5.45;;;2.85;;
25627;SDS011;40915;50.826;4.356;2022-08-01T01:20:26;6.85;;;3.20;;
25627;SDS011;40915;50.826;4.356;2022-08-01T01:25:48;6.40;;;3.92;;
25627;SDS011;40915;50.826;4.356;2022-08-01T01:28:20;8.93;;;3.95;;
25627;SDS011;40915;50.826;4.356;2022-08-01T01:30:48;5.18;;;3.45;;
25627;SDS011;40915;50.826;4.356;2022-08-01T01:33:15;6.30;;;3.85;;
25627;SDS011;40915;50.826;4.356;2022-08-01T01:35:42;7.93;;;4.20;;
25627;SDS011;40915;50.826;4.356;2022-08-01T01:38:13;9.55;;;5.05;;
25627;SDS011;40915;50.826;4.356;2022-08-01T01:40:40;7.85;;;4.63;;
25627;SDS011;40915;50.826;4.356;2022-08-01T01:43:08;7.20;;;4.70;;
25627;SDS011;40915;50.826;4.356;2022-08-01T01:45:35;6.95;;;4.97;;
25627;SDS011;40915;50.826;4.356;2022-08-01T01:48:01;8.32;;;5.03;;
25627;SDS011;40915;50.826;4.356;2022-08-01T01:50:27;9.30;;;5.10;;
25627;SDS011;40915;50.826;4.356;2022-08-01T01:52:54;8.20;;;5.18;;
25627;SDS011;40915;50.826;4.356;2022-08-01T01:55:20;10.05;;;5.30;;
25627;SDS011;40915;50.826;4.356;2022-08-01T01:57:47;11.82;;;5.85;;
25627;SDS011;40915;50.826;4.356;2022-08-01T02:00:15;14.05;;;6.68;;
25627;SDS011;40915;50.826;4.356;2022-08-01T02:02:42;12.30;;;6.40;;
25627;SDS011;40915;50.826;4.356;2022-08-01T02:05:09;15.38;;;7.20;;
25627;SDS011;40915;50.826;4.356;2022-08-01T02:07:35;15.63;;;7.15;;
25627;SDS011;40915;50.826;4.356;2022-08-01T02:10:02;13.32;;;6.22;;
25627;SDS011;40915;50.826;4.356;2022-08-01T02:12:29;13.25;;;6.38;;
25627;SDS011;40915;50.826;4.356;2022-08-01T02:14:58;10.75;;;6.18;;
25627;SDS011;40915;50.826;4.356;2022-08-01T02:17:25;12.05;;;6.40;;
25627;SDS011;40915;50.826;4.356;2022-08-01T02:19:52;12.05;;;6.07;;
25627;SDS011;40915;50.826;4.356;2022-08-01T02:22:20;13.82;;;6.82;;
25627;SDS011;40915;50.826;4.356;2022-08-01T02:24:51;11.48;;;6.47;;
25627;SDS011;40915;50.826;4.356;2022-08-01T02:27:22;14.27;;;6.60;;
25627;SDS011;40915;50.826;4.356;2022-08-01T02:29:53;17.25;;;7.53;;
25627;SDS011;40915;50.826;4.356;2022-08-01T02:32:20;17.70;;;7.70;;
25627;SDS011;40915;50.826;4.356;2022-08-01T02:34:49;14.05;;;6.85;;
25627;SDS011;40915;50.826;4.356;2022-08-01T02:37:16;11.43;;;7.65;;
25627;SDS011;40915;50.826;4.356;2022-08-01T02:39:43;14.65;;;8.23;;
25627;SDS011;40915;50.826;4.356;2022-08-01T02:42:11;14.23;;;7.88;;
25627;SDS011;40915;50.826;4.356;2022-08-01T02:44:39;14.18;;;7.82;;
25627;SDS011;40915;50.826;4.356;2022-08-01T02:47:07;16.50;;;8.65;;
25627;SDS011;40915;50.826;4.356;2022-08-01T02:49:35;13.07;;;8.20;;
25627;SDS011;40915;50.826;4.356;2022-08-01T02:52:07;16.67;;;7.72;;
25627;SDS011;40915;50.826;4.356;2022-08-01T02:54:34;18.70;;;8.45;;
25627;SDS011;40915;50.826;4.356;2022-08-01T02:57:00;18.75;;;8.00;;
25627;SDS011;40915;50.826;4.356;2022-08-01T02:59:28;21.20;;;8.40;;
25627;SDS011;40915;50.826;4.356;2022-08-01T03:01:55;12.77;;;7.22;;
25627;SDS011;40915;50.826;4.356;2022-08-01T03:04:22;14.00;;;7.93;;
25627;SDS011;40915;50.826;4.356;2022-08-01T03:06:48;14.45;;;7.85;;
25627;SDS011;40915;50.826;4.356;2022-08-01T03:09:14;18.50;;;8.43;;
25627;SDS011;40915;50.826;4.356;2022-08-01T03:11:41;13.95;;;7.50;;
25627;SDS011;40915;50.826;4.356;2022-08-01T03:14:07;15.90;;;7.78;;
25627;SDS011;40915;50.826;4.356;2022-08-01T03:16:35;16.55;;;7.82;;
25627;SDS011;40915;50.826;4.356;2022-08-01T03:19:03;15.93;;;7.95;;
25627;SDS011;40915;50.826;4.356;2022-08-01T03:21:30;17.65;;;8.90;;
25627;SDS011;40915;50.826;4.356;2022-08-01T03:23:57;20.75;;;8.95;;
25627;SDS011;40915;50.826;4.356;2022-08-01T03:26:25;20.08;;;9.68;;
25627;SDS011;40915;50.826;4.356;2022-08-01T03:28:52;17.10;;;9.27;;
25627;SDS011;40915;50.826;4.356;2022-08-01T03:31:19;18.63;;;9.07;;
25627;SDS011;40915;50.826;4.356;2022-08-01T03:33:45;17.50;;;9.23;;
25627;SDS011;40915;50.826;4.356;2022-08-01T03:36:11;17.00;;;9.40;;
25627;SDS011;40915;50.826;4.356;2022-08-01T03:38:39;20.52;;;10.20;;
25627;SDS011;40915;50.826;4.356;2022-08-01T03:41:09;16.15;;;9.48;;
25627;SDS011;40915;50.826;4.356;2022-08-01T03:44:10;17.75;;;9.88;;
25627;SDS011;40915;50.826;4.356;2022-08-01T03:47:09;22.35;;;10.32;;
25627;SDS011;40915;50.826;4.356;2022-08-01T03:49:17;18.50;;;9.80;;
25627;SDS011;40915;50.826;4.356;2022-08-01T03:51:44;24.00;;;10.02;;
25627;SDS011;40915;50.826;4.356;2022-08-01T03:54:14;21.50;;;9.63;;
25627;SDS011;40915;50.826;4.356;2022-08-01T03:56:41;22.23;;;10.05;;
25627;SDS011;40915;50.826;4.356;2022-08-01T03:59:08;23.77;;;11.18;;
25627;SDS011;40915;50.826;4.356;2022-08-01T04:01:34;26.02;;;11.23;;
25627;SDS011;40915;50.826;4.356;2022-08-01T04:04:02;22.23;;;10.93;;
25627;SDS011;40915;50.826;4.356;2022-08-01T04:06:30;22.13;;;10.82;;
25627;SDS011;40915;50.826;4.356;2022-08-01T04:08:56;24.35;;;11.30;;
25627;SDS011;40915;50.826;4.356;2022-08-01T04:11:23;25.10;;;11.85;;
25627;SDS011;40915;50.826;4.356;2022-08-01T04:13:50;28.15;;;12.65;;
25627;SDS011;40915;50.826;4.356;2022-08-01T04:16:16;24.00;;;12.43;;
25627;SDS011;40915;50.826;4.356;2022-08-01T04:18:42;19.92;;;11.95;;
25627;SDS011;40915;50.826;4.356;2022-08-01T04:21:08;17.10;;;11.48;;
25627;SDS011;40915;50.826;4.356;2022-08-01T04:23:34;19.33;;;11.73;;
25627;SDS011;40915;50.826;4.356;2022-08-01T04:26:01;19.58;;;12.77;;
25627;SDS011;40915;50.826;4.356;2022-08-01T04:28:31;20.85;;;12.50;;
25627;SDS011;40915;50.826;4.356;2022-08-01T04:31:00;18.13;;;12.30;;
25627;SDS011;40915;50.826;4.356;2022-08-01T04:33:26;20.85;;;12.38;;
25627;SDS011;40915;50.826;4.356;2022-08-01T04:35:53;15.35;;;11.65;;
25627;SDS011;40915;50.826;4.356;2022-08-01T04:38:21;19.50;;;11.43;;
25627;SDS011;40915;50.826;4.356;2022-08-01T04:40:48;17.30;;;11.63;;
25627;SDS011;40915;50.826;4.356;2022-08-01T04:43:15;19.17;;;11.30;;
25627;SDS011;40915;50.826;4.356;2022-08-01T04:45:42;20.27;;;11.98;;
25627;SDS011;40915;50.826;4.356;2022-08-01T04:48:08;19.02;;;12.65;;
25627;SDS011;40915;50.826;4.356;2022-08-01T04:50:35;21.17;;;13.63;;
25627;SDS011;40915;50.826;4.356;2022-08-01T04:53:02;17.98;;;13.10;;
25627;SDS011;40915;50.826;4.356;2022-08-01T04:55:28;23.95;;;14.77;;
25627;SDS011;40915;50.826;4.356;2022-08-01T04:57:56;19.77;;;14.00;;
25627;SDS011;40915;50.826;4.356;2022-08-01T05:00:22;22.75;;;13.77;;
25627;SDS011;40915;50.826;4.356;2022-08-01T05:02:48;24.90;;;13.80;;
25627;SDS011;40915;50.826;4.356;2022-08-01T05:05:14;22.90;;;13.70;;
25627;SDS011;40915;50.826;4.356;2022-08-01T05:07:40;17.00;;;11.85;;
25627;SDS011;40915;50.826;4.356;2022-08-01T05:10:06;18.60;;;13.25;;
25627;SDS011;40915;50.826;4.356;2022-08-01T05:12:32;20.90;;;14.25;;
25627;SDS011;40915;50.826;4.356;2022-08-01T05:14:58;16.73;;;12.25;;
25627;SDS011;40915;50.826;4.356;2022-08-01T05:17:24;20.40;;;13.07;;
25627;SDS011;40915;50.826;4.356;2022-08-01T05:19:50;20.25;;;13.23;;
25627;SDS011;40915;50.826;4.356;2022-08-01T05:22:16;20.80;;;13.90;;
25627;SDS011;40915;50.826;4.356;2022-08-01T05:24:42;21.23;;;14.38;;
25627;SDS011;40915;50.826;4.356;2022-08-01T05:27:08;20.08;;;13.13;;
25627;SDS011;40915;50.826;4.356;2022-08-01T05:29:35;17.35;;;12.45;;
25627;SDS011;40915;50.826;4.356;2022-08-01T05:32:01;21.30;;;13.75;;
25627;SDS011;40915;50.826;4.356;2022-08-01T05:34:27;19.50;;;13.48;;
25627;SDS011;40915;50.826;4.356;2022-08-01T05:36:53;17.35;;;12.63;;
25627;SDS011;40915;50.826;4.356;2022-08-01T05:39:19;16.33;;;12.68;;
25627;SDS011;40915;50.826;4.356;2022-08-01T05:41:45;16.48;;;11.45;;
25627;SDS011;40915;50.826;4.356;2022-08-01T05:44:11;12.98;;;10.95;;
25627;SDS011;40915;50.826;4.356;2022-08-01T05:46:37;18.33;;;11.23;;
25627;SDS011;40915;50.826;4.356;2022-08-01T05:49:04;12.60;;;10.25;;
25627;SDS011;40915;50.826;4.356;2022-08-01T05:51:30;16.75;;;11.25;;
25627;SDS011;40915;50.826;4.356;2022-08-01T05:53:56;18.27;;;10.60;;
25627;SDS011;40915;50.826;4.356;2022-08-01T05:56:22;13.90;;;9.88;;
25627;SDS011;40915;50.826;4.356;2022-08-01T05:58:49;11.30;;;9.57;;
25627;SDS011;40915;50.826;4.356;2022-08-01T06:01:15;13.02;;;10.07;;
25627;SDS011;40915;50.826;4.356;2022-08-01T06:03:42;15.15;;;9.32;;
25627;SDS011;40915;50.826;4.356;2022-08-01T06:06:07;11.43;;;8.30;;
25627;SDS011;40915;50.826;4.356;2022-08-01T06:08:33;11.45;;;8.27;;
25627;SDS011;40915;50.826;4.356;2022-08-01T06:10:59;13.05;;;8.98;;
25627;SDS011;40915;50.826;4.356;2022-08-01T06:13:25;11.23;;;8.20;;
25627;SDS011;40915;50.826;4.356;2022-08-01T06:15:50;12.48;;;9.52;;
25627;SDS011;40915;50.826;4.356;2022-08-01T06:18:16;11.27;;;8.65;;
25627;SDS011;40915;50.826;4.356;2022-08-01T06:20:42;11.73;;;8.68;;
25627;SDS011;40915;50.826;4.356;2022-08-01T06:23:09;12.30;;;8.85;;
25627;SDS011;40915;50.826;4.356;2022-08-01T06:25:35;9.50;;;7.35;;
25627;SDS011;40915;50.826;4.356;2022-08-01T06:28:00;10.88;;;7.90;;
25627;SDS011;40915;50.826;4.356;2022-08-01T06:30:26;14.98;;;8.57;;
25627;SDS011;40915;50.826;4.356;2022-08-01T06:32:52;10.18;;;7.70;;
25627;SDS011;40915;50.826;4.356;2022-08-01T06:35:20;13.10;;;8.23;;
25627;SDS011;40915;50.826;4.356;2022-08-01T06:37:46;17.20;;;8.35;;
25627;SDS011;40915;50.826;4.356;2022-08-01T06:40:13;9.98;;;6.72;;
25627;SDS011;40915;50.826;4.356;2022-08-01T06:42:40;9.68;;;7.25;;
25627;SDS011;40915;50.826;4.356;2022-08-01T06:45:06;9.75;;;6.43;;
25627;SDS011;40915;50.826;4.356;2022-08-01T06:47:36;9.30;;;6.47;;
25627;SDS011;40915;50.826;4.356;2022-08-01T06:50:02;14.57;;;5.95;;
25627;SDS011;40915;50.826;4.356;2022-08-01T06:52:29;13.60;;;6.82;;
25627;SDS011;40915;50.826;4.356;2022-08-01T06:54:55;10.20;;;6.20;;
25627;SDS011;40915;50.826;4.356;2022-08-01T06:57:20;7.93;;;6.40;;
25627;SDS011;40915;50.826;4.356;2022-08-01T06:59:46;9.07;;;5.82;;
25627;SDS011;40915;50.826;4.356;2022-08-01T07:02:11;9.05;;;5.57;;
25627;SDS011;40915;50.826;4.356;2022-08-01T07:04:37;7.60;;;4.80;;
25627;SDS011;40915;50.826;4.356;2022-08-01T07:07:03;9.07;;;5.47;;
25627;SDS011;40915;50.826;4.356;2022-08-01T07:09:28;7.28;;;5.57;;
25627;SDS011;40915;50.826;4.356;2022-08-01T07:11:54;10.45;;;5.50;;
25627;SDS011;40915;50.826;4.356;2022-08-01T07:14:20;5.30;;;4.75;;
25627;SDS011;40915;50.826;4.356;2022-08-01T07:16:46;6.38;;;4.93;;
25627;SDS011;40915;50.826;4.356;2022-08-01T07:19:12;10.00;;;4.80;;
25627;SDS011;40915;50.826;4.356;2022-08-01T07:21:38;7.53;;;4.53;;
25627;SDS011;40915;50.826;4.356;2022-08-01T07:24:04;5.45;;;3.60;;
25627;SDS011;40915;50.826;4.356;2022-08-01T07:26:31;5.97;;;4.07;;
25627;SDS011;40915;50.826;4.356;2022-08-01T07:28:56;4.90;;;3.85;;
25627;SDS011;40915;50.826;4.356;2022-08-01T07:31:22;4.85;;;3.97;;
25627;SDS011;40915;50.826;4.356;2022-08-01T07:33:49;4.97;;;3.72;;
25627;SDS011;40915;50.826;4.356;2022-08-01T07:36:15;6.30;;;4.18;;
25627;SDS011;40915;50.826;4.356;2022-08-01T07:38:41;4.10;;;3.47;;
25627;SDS011;40915;50.826;4.356;2022-08-01T07:41:07;5.45;;;4.10;;
25627;SDS011;40915;50.826;4.356;2022-08-01T07:43:33;4.85;;;3.80;;
25627;SDS011;40915;50.826;4.356;2022-08-01T07:46:01;4.65;;;3.92;;
25627;SDS011;40915;50.826;4.356;2022-08-01T07:48:29;4.28;;;3.88;;
25627;SDS011;40915;50.826;4.356;2022-08-01T07:50:55;7.78;;;4.40;;
25627;SDS011;40915;50.826;4.356;2022-08-01T07:53:24;5.25;;;3.75;;
25627;SDS011;40915;50.826;4.356;2022-08-01T07:55:50;4.65;;;3.85;;
25627;SDS011;40915;50.826;4.356;2022-08-01T07:58:16;3.83;;;3.45;;
25627;SDS011;40915;50.826;4.356;2022-08-01T08:00:43;4.15;;;3.55;;
25627;SDS011;40915;50.826;4.356;2022-08-01T08:03:08;6.03;;;3.67;;
25627;SDS011;40915;50.826;4.356;2022-08-01T08:05:34;3.90;;;3.13;;
25627;SDS011;40915;50.826;4.356;2022-08-01T08:08:04;3.90;;;2.70;;
25627;SDS011;40915;50.826;4.356;2022-08-01T08:10:30;3.97;;;2.85;;
25627;SDS011;40915;50.826;4.356;2022-08-01T08:12:56;4.45;;;3.50;;
25627;SDS011;40915;50.826;4.356;2022-08-01T08:15:22;5.15;;;3.00;;
25627;SDS011;40915;50.826;4.356;2022-08-01T08:17:48;5.80;;;2.95;;
25627;SDS011;40915;50.826;4.356;2022-08-01T08:20:14;5.05;;;2.90;;
25627;SDS011;40915;50.826;4.356;2022-08-01T08:22:40;3.85;;;2.50;;
25627;SDS011;40915;50.826;4.356;2022-08-01T08:25:06;3.60;;;2.40;;
25627;SDS011;40915;50.826;4.356;2022-08-01T08:27:32;3.13;;;1.88;;
25627;SDS011;40915;50.826;4.356;2022-08-01T08:29:58;3.92;;;2.70;;
25627;SDS011;40915;50.826;4.356;2022-08-01T08:32:25;4.63;;;2.08;;
25627;SDS011;40915;50.826;4.356;2022-08-01T08:34:50;5.88;;;2.28;;
25627;SDS011;40915;50.826;4.356;2022-08-01T08:37:17;5.28;;;2.35;;
25627;SDS011;40915;50.826;4.356;2022-08-01T08:39:43;4.68;;;2.13;;
25627;SDS011;40915;50.826;4.356;2022-08-01T08:42:10;2.10;;;1.60;;
25627;SDS011;40915;50.826;4.356;2022-08-01T08:44:36;4.60;;;2.22;;
25627;SDS011;40915;50.826;4.356;2022-08-01T08:47:03;2.88;;;1.83;;
25627;SDS011;40915;50.826;4.356;2022-08-01T08:49:31;4.43;;;2.10;;
25627;SDS011;40915;50.826;4.356;2022-08-01T08:51:59;4.10;;;1.85;;
25627;SDS011;40915;50.826;4.356;2022-08-01T08:54:25;2.72;;;2.20;;
25627;SDS011;40915;50.826;4.356;2022-08-01T08:56:52;3.72;;;1.70;;
25627;SDS011;40915;50.826;4.356;2022-08-01T08:59:18;2.47;;;1.90;;
25627;SDS011;40915;50.826;4.356;2022-08-01T09:01:45;3.38;;;1.88;;
25627;SDS011;40915;50.826;4.356;2022-08-01T09:04:11;2.05;;;1.70;;
25627;SDS011;40915;50.826;4.356;2022-08-01T09:06:38;3.08;;;1.90;;
25627;SDS011;40915;50.826;4.356;2022-08-01T09:09:04;2.92;;;1.85;;
25627;SDS011;40915;50.826;4.356;2022-08-01T09:11:30;4.55;;;2.00;;
25627;SDS011;40915;50.826;4.356;2022-08-01T09:14:07;3.38;;;2.50;;
25627;SDS011;40915;50.826;4.356;2022-08-01T09:16:33;6.53;;;2.88;;
25627;SDS011;40915;50.826;4.356;2022-08-01T09:21:35;2.63;;;2.35;;
25627;SDS011;40915;50.826;4.356;2022-08-01T09:24:02;4.20;;;2.47;;
25627;SDS011;40915;50.826;4.356;2022-08-01T09:26:31;5.07;;;2.42;;
25627;SDS011;40915;50.826;4.356;2022-08-01T09:28:58;3.50;;;2.17;;
25627;SDS011;40915;50.826;4.356;2022-08-01T09:31:26;2.50;;;2.00;;
25627;SDS011;40915;50.826;4.356;2022-08-01T09:33:57;2.00;;;1.60;;
25627;SDS011;40915;50.826;4.356;2022-08-01T09:36:24;2.83;;;2.00;;
25627;SDS011;40915;50.826;4.356;2022-08-01T09:38:51;5.03;;;2.30;;
25627;SDS011;40915;50.826;4.356;2022-08-01T09:41:17;2.53;;;2.20;;
25627;SDS011;40915;50.826;4.356;2022-08-01T09:43:54;2.50;;;2.10;;
25627;SDS011;40915;50.826;4.356;2022-08-01T09:46:20;5.38;;;2.22;;
25627;SDS011;40915;50.826;4.356;2022-08-01T09:48:59;6.40;;;2.53;;
25627;SDS011;40915;50.826;4.356;2022-08-01T09:53:55;2.85;;;1.55;;
25627;SDS011;40915;50.826;4.356;2022-08-01T09:56:21;4.38;;;1.40;;
25627;SDS011;40915;50.826;4.356;2022-08-01T09:58:49;2.13;;;1.70;;
25627;SDS011;40915;50.826;4.356;2022-08-01T10:01:15;2.72;;;1.38;;
25627;SDS011;40915;50.826;4.356;2022-08-01T10:03:40;1.77;;;1.20;;
25627;SDS011;40915;50.826;4.356;2022-08-01T10:06:19;2.83;;;1.40;;
25627;SDS011;40915;50.826;4.356;2022-08-01T10:08:47;2.10;;;1.05;;
25627;SDS011;40915;50.826;4.356;2022-08-01T10:11:13;3.90;;;1.05;;
25627;SDS011;40915;50.826;4.356;2022-08-01T10:13:39;2.70;;;1.35;;
25627;SDS011;40915;50.826;4.356;2022-08-01T10:16:05;2.85;;;1.30;;
25627;SDS011;40915;50.826;4.356;2022-08-01T10:18:32;2.78;;;1.50;;
25627;SDS011;40915;50.826;4.356;2022-08-01T10:21:00;1.67;;;0.98;;
25627;SDS011;40915;50.826;4.356;2022-08-01T10:23:27;4.00;;;1.30;;
25627;SDS011;40915;50.826;4.356;2022-08-01T10:25:58;5.45;;;1.40;;
25627;SDS011;40915;50.826;4.356;2022-08-01T10:28:25;2.15;;;1.27;;
25627;SDS011;40915;50.826;4.356;2022-08-01T10:30:51;2.80;;;1.00;;
25627;SDS011;40915;50.826;4.356;2022-08-01T10:33:17;3.30;;;1.05;;
25627;SDS011;40915;50.826;4.356;2022-08-01T10:35:46;2.33;;;1.20;;
25627;SDS011;40915;50.826;4.356;2022-08-01T10:38:12;4.18;;;1.17;;
25627;SDS011;40915;50.826;4.356;2022-08-01T10:40:38;3.47;;;1.15;;
25627;SDS011;40915;50.826;4.356;2022-08-01T10:43:06;1.42;;;1.17;;
25627;SDS011;40915;50.826;4.356;2022-08-01T10:45:32;1.80;;;0.90;;
25627;SDS011;40915;50.826;4.356;2022-08-01T10:48:12;3.97;;;1.35;;
25627;SDS011;40915;50.826;4.356;2022-08-01T10:50:44;1.52;;;0.80;;
25627;SDS011;40915;50.826;4.356;2022-08-01T10:53:15;1.45;;;0.73;;
25627;SDS011;40915;50.826;4.356;2022-08-01T10:58:45;2.53;;;1.20;;
25627;SDS011;40915;50.826;4.356;2022-08-01T11:03:57;1.75;;;0.90;;
25627;SDS011;40915;50.826;4.356;2022-08-01T11:08:58;3.05;;;1.10;;
25627;SDS011;40915;50.826;4.356;2022-08-01T11:12:02;1.50;;;0.90;;
25627;SDS011;40915;50.826;4.356;2022-08-01T11:14:32;5.00;;;1.20;;
25627;SDS011;40915;50.826;4.356;2022-08-01T11:17:45;2.75;;;1.00;;
25627;SDS011;40915;50.826;4.356;2022-08-01T11:23:19;1.50;;;0.98;;
25627;SDS011;40915;50.826;4.356;2022-08-01T11:28:19;1.80;;;0.93;;
25627;SDS011;40915;50.826;4.356;2022-08-01T11:33:17;2.78;;;0.93;;
25627;SDS011;40915;50.826;4.356;2022-08-01T11:38:35;1.25;;;0.80;;
25627;SDS011;40915;50.826;4.356;2022-08-01T11:43:58;1.27;;;0.70;;
25627;SDS011;40915;50.826;4.356;2022-08-01T11:52:12;1.60;;;0.60;;
25627;SDS011;40915;50.826;4.356;2022-08-01T11:54:45;2.35;;;0.80;;
25627;SDS011;40915;50.826;4.356;2022-08-01T11:59:42;1.67;;;0.77;;
25627;SDS011;40915;50.826;4.356;2022-08-01T12:02:17;1.00;;;0.90;;
25627;SDS011;40915;50.826;4.356;2022-08-01T12:05:02;1.63;;;0.70;;
25627;SDS011;40915;50.826;4.356;2022-08-01T12:07:34;1.42;;;0.90;;
25627;SDS011;40915;50.826;4.356;2022-08-01T12:10:02;2.38;;;0.90;;
25627;SDS011;40915;50.826;4.356;2022-08-01T12:13:12;2.33;;;1.20;;
25627;SDS011;40915;50.826;4.356;2022-08-01T12:15:35;1.27;;;0.73;;
25627;SDS011;40915;50.826;4.356;2022-08-01T12:18:06;1.90;;;0.80;;
25627;SDS011;40915;50.826;4.356;2022-08-01T12:20:32;2.75;;;1.30;;
25627;SDS011;40915;50.826;4.356;2022-08-01T12:23:03;1.35;;;0.85;;
25627;SDS011;40915;50.826;4.356;2022-08-01T12:25:31;3.10;;;1.05;;
25627;SDS011;40915;50.826;4.356;2022-08-01T12:28:00;2.20;;;0.93;;
25627;SDS011;40915;50.826;4.356;2022-08-01T12:30:28;5.03;;;1.38;;
25627;SDS011;40915;50.826;4.356;2022-08-01T12:32:55;4.07;;;1.10;;
25627;SDS011;40915;50.826;4.356;2022-08-01T12:35:23;3.97;;;0.88;;
25627;SDS011;40915;50.826;4.356;2022-08-01T12:37:51;5.47;;;2.60;;
25627;SDS011;40915;50.826;4.356;2022-08-01T12:40:22;3.58;;;1.20;;
25627;SDS011;40915;50.826;4.356;2022-08-01T12:42:53;3.17;;;1.30;;
25627;SDS011;40915;50.826;4.356;2022-08-01T12:45:21;3.03;;;0.90;;
25627;SDS011;40915;50.826;4.356;2022-08-01T12:48:17;9.27;;;1.77;;
25627;SDS011;40915;50.826;4.356;2022-08-01T12:50:45;22.70;;;3.00;;
25627;SDS011;40915;50.826;4.356;2022-08-01T12:53:12;5.38;;;1.30;;
25627;SDS011;40915;50.826;4.356;2022-08-01T12:55:44;1.20;;;0.85;;
25627;SDS011;40915;50.826;4.356;2022-08-01T12:58:15;4.28;;;1.65;;
25627;SDS011;40915;50.826;4.356;2022-08-01T13:00:42;2.45;;;1.25;;
25627;SDS011;40915;50.826;4.356;2022-08-01T13:08:36;3.05;;;1.20;;
25627;SDS011;40915;50.826;4.356;2022-08-01T13:13:42;1.48;;;0.95;;
25627;SDS011;40915;50.826;4.356;2022-08-01T13:16:13;3.63;;;1.20;;
25627;SDS011;40915;50.826;4.356;2022-08-01T13:18:50;2.30;;;1.30;;
25627;SDS011;40915;50.826;4.356;2022-08-01T13:21:18;3.55;;;1.10;;
25627;SDS011;40915;50.826;4.356;2022-08-01T13:24:09;2.03;;;1.00;;
25627;SDS011;40915;50.826;4.356;2022-08-01T13:29:16;2.88;;;1.20;;
25627;SDS011;40915;50.826;4.356;2022-08-01T13:31:46;2.60;;;1.10;;
25627;SDS011;40915;50.826;4.356;2022-08-01T13:34:12;2.50;;;1.13;;
25627;SDS011;40915;50.826;4.356;2022-08-01T13:36:38;2.42;;;1.20;;
25627;SDS011;40915;50.826;4.356;2022-08-01T13:39:05;4.50;;;1.20;;
25627;SDS011;40915;50.826;4.356;2022-08-01T13:41:49;2.45;;;1.23;;
25627;SDS011;40915;50.826;4.356;2022-08-01T13:44:15;2.30;;;1.23;;
25627;SDS011;40915;50.826;4.356;2022-08-01T13:46:41;2.20;;;1.02;;
25627;SDS011;40915;50.826;4.356;2022-08-01T13:49:08;2.20;;;1.40;;
25627;SDS011;40915;50.826;4.356;2022-08-01T13:51:35;2.33;;;1.95;;
25627;SDS011;40915;50.826;4.356;2022-08-01T13:54:02;2.97;;;1.15;;
25627;SDS011;40915;50.826;4.356;2022-08-01T13:56:29;1.45;;;1.00;;
25627;SDS011;40915;50.826;4.356;2022-08-01T13:58:55;2.55;;;1.00;;
25627;SDS011;40915;50.826;4.356;2022-08-01T14:01:21;2.70;;;1.05;;
25627;SDS011;40915;50.826;4.356;2022-08-01T14:03:47;2.67;;;1.00;;
25627;SDS011;40915;50.826;4.356;2022-08-01T14:06:14;3.08;;;0.90;;
25627;SDS011;40915;50.826;4.356;2022-08-01T14:08:44;3.13;;;1.10;;
25627;SDS011;40915;50.826;4.356;2022-08-01T14:11:10;2.50;;;1.10;;
25627;SDS011;40915;50.826;4.356;2022-08-01T14:13:36;2.90;;;0.90;;
25627;SDS011;40915;50.826;4.356;2022-08-01T14:16:04;3.47;;;1.38;;
25627;SDS011;40915;50.826;4.356;2022-08-01T14:18:30;2.63;;;1.00;;
25627;SDS011;40915;50.826;4.356;2022-08-01T14:20:56;3.53;;;0.90;;
25627;SDS011;40915;50.826;4.356;2022-08-01T14:23:22;1.60;;;0.80;;
25627;SDS011;40915;50.826;4.356;2022-08-01T14:25:48;1.65;;;1.10;;
25627;SDS011;40915;50.826;4.356;2022-08-01T14:28:13;2.42;;;1.05;;
25627;SDS011;40915;50.826;4.356;2022-08-01T14:30:39;2.15;;;1.08;;
25627;SDS011;40915;50.826;4.356;2022-08-01T14:33:07;3.20;;;1.30;;
25627;SDS011;40915;50.826;4.356;2022-08-01T14:35:33;1.02;;;0.82;;
25627;SDS011;40915;50.826;4.356;2022-08-01T14:37:58;2.08;;;1.17;;
25627;SDS011;40915;50.826;4.356;2022-08-01T14:40:24;2.22;;;1.00;;
25627;SDS011;40915;50.826;4.356;2022-08-01T14:42:50;2.58;;;1.08;;
25627;SDS011;40915;50.826;4.356;2022-08-01T14:45:16;1.90;;;1.17;;
25627;SDS011;40915;50.826;4.356;2022-08-01T14:47:42;4.10;;;1.55;;
25627;SDS011;40915;50.826;4.356;2022-08-01T14:50:10;1.90;;;1.20;;
25627;SDS011;40915;50.826;4.356;2022-08-01T14:52:38;2.50;;;1.50;;
25627;SDS011;40915;50.826;4.356;2022-08-01T14:55:05;2.55;;;1.13;;
25627;SDS011;40915;50.826;4.356;2022-08-01T14:57:32;2.38;;;0.93;;
25627;SDS011;40915;50.826;4.356;2022-08-01T14:59:58;3.17;;;1.00;;
25627;SDS011;40915;50.826;4.356;2022-08-01T15:02:24;2.13;;;1.20;;
25627;SDS011;40915;50.826;4.356;2022-08-01T15:04:50;1.30;;;0.80;;
25627;SDS011;40915;50.826;4.356;2022-08-01T15:07:16;4.70;;;1.45;;
25627;SDS011;40915;50.826;4.356;2022-08-01T15:09:42;3.15;;;1.20;;
25627;SDS011;40915;50.826;4.356;2022-08-01T15:12:08;2.35;;;1.00;;
25627;SDS011;40915;50.826;4.356;2022-08-01T15:14:35;2.20;;;0.80;;
25627;SDS011;40915;50.826;4.356;2022-08-01T15:17:20;1.88;;;0.90;;
25627;SDS011;40915;50.826;4.356;2022-08-01T15:19:48;2.38;;;1.00;;
25627;SDS011;40915;50.826;4.356;2022-08-01T15:22:15;5.85;;;1.50;;
25627;SDS011;40915;50.826;4.356;2022-08-01T15:24:41;2.85;;;1.30;;
25627;SDS011;40915;50.826;4.356;2022-08-01T15:27:08;5.18;;;1.30;;
25627;SDS011;40915;50.826;4.356;2022-08-01T15:29:34;3.13;;;1.23;;
25627;SDS011;40915;50.826;4.356;2022-08-01T15:32:01;4.22;;;1.20;;
25627;SDS011;40915;50.826;4.356;2022-08-01T15:34:31;3.63;;;1.20;;
25627;SDS011;40915;50.826;4.356;2022-08-01T15:36:58;4.60;;;2.17;;
25627;SDS011;40915;50.826;4.356;2022-08-01T15:39:24;1.70;;;0.95;;